createdAt,value
2023-01-22T00:01:28.696Z,-1.40
2023-01-22T00:04:30.522Z,-1.41
2023-01-22T00:07:32.452Z,-1.42
2023-01-22T00:10:34.142Z,-1.43
2023-01-22T00:13:35.867Z,-1.45
2023-01-22T00:16:37.478Z,-1.46
2023-01-22T00:19:39.192Z,-1.46
2023-01-22T00:22:40.870Z,-1.46
2023-01-22T00:25:42.705Z,-1.48
2023-01-22T00:28:44.322Z,-1.47
2023-01-22T00:31:46.027Z,-1.47
2023-01-22T00:34:47.588Z,-1.46
2023-01-22T00:37:49.200Z,-1.45
2023-01-22T00:40:50.824Z,-1.46
2023-01-22T00:43:53.033Z,-1.47
2023-01-22T00:46:54.909Z,-1.49
2023-01-22T00:49:56.542Z,-1.49
2023-01-22T00:52:58.129Z,-1.48
2023-01-22T00:56:01.725Z,-1.47
2023-01-22T00:59:03.414Z,-1.48
2023-01-22T01:02:05.189Z,-1.48
2023-01-22T01:05:07.448Z,-1.51
2023-01-22T01:08:09.167Z,-1.54
2023-01-22T01:11:19.835Z,-1.56
2023-01-22T01:14:21.583Z,-1.61
2023-01-22T01:17:23.094Z,-1.66
2023-01-22T01:20:24.978Z,-1.67
2023-01-22T01:23:26.902Z,-1.66
2023-01-22T01:26:28.982Z,-1.66
2023-01-22T01:29:30.685Z,-1.64
2023-01-22T01:32:32.431Z,-1.63
2023-01-22T01:35:33.975Z,-1.61
2023-01-22T01:38:36.322Z,-1.61
2023-01-22T01:41:37.949Z,-1.65
2023-01-22T01:44:40.426Z,-1.67
2023-01-22T01:47:42.144Z,-1.72
2023-01-22T01:50:47.591Z,-1.76
2023-01-22T01:53:50.458Z,-1.77
2023-01-22T01:56:57.335Z,-1.76
2023-01-22T01:59:59.919Z,-1.76
2023-01-22T02:03:01.716Z,-1.73
2023-01-22T02:06:03.385Z,-1.69
2023-01-22T02:09:05.364Z,-1.67
2023-01-22T02:12:07.294Z,-1.65
2023-01-22T02:15:09.924Z,-1.62
2023-01-22T02:18:11.533Z,-1.60
2023-01-22T02:21:34.880Z,-1.60
2023-01-22T02:24:36.688Z,-1.58
2023-01-22T02:27:38.225Z,-1.57
2023-01-22T02:30:39.883Z,-1.56
2023-01-22T02:33:41.424Z,-1.55
2023-01-22T02:36:43.017Z,-1.55
2023-01-22T02:39:44.873Z,-1.55
2023-01-22T02:42:46.516Z,-1.54
2023-01-22T02:45:48.182Z,-1.54
2023-01-22T02:48:49.858Z,-1.54
2023-01-22T02:51:51.602Z,-1.53
2023-01-22T02:54:53.136Z,-1.52
2023-01-22T02:57:54.840Z,-1.51
2023-01-22T03:00:56.476Z,-1.51
2023-01-22T03:04:04.104Z,-1.52
2023-01-22T03:07:05.725Z,-1.50
2023-01-22T03:10:10.162Z,-1.49
2023-01-22T03:13:11.874Z,-1.49
2023-01-22T03:16:13.509Z,-1.47
2023-01-22T03:19:15.054Z,-1.47
2023-01-22T03:22:18.118Z,-1.45
2023-01-22T03:25:19.781Z,-1.45
2023-01-22T03:28:21.365Z,-1.44
2023-01-22T03:31:22.976Z,-1.44
2023-01-22T03:34:26.480Z,-1.43
2023-01-22T03:37:28.247Z,-1.42
2023-01-22T03:40:29.934Z,-1.42
2023-01-22T03:43:32.512Z,-1.41
2023-01-22T03:46:34.216Z,-1.42
2023-01-22T03:49:35.826Z,-1.41
2023-01-22T03:52:37.703Z,-1.41
2023-01-22T03:55:39.361Z,-1.41
2023-01-22T03:58:41.379Z,-1.41
2023-01-22T04:01:42.942Z,-1.41
2023-01-22T04:04:44.706Z,-1.40
2023-01-22T04:07:46.272Z,-1.40
2023-01-22T04:10:48.162Z,-1.40
2023-01-22T04:13:50.234Z,-1.41
2023-01-22T04:16:51.838Z,-1.41
2023-01-22T04:19:53.474Z,-1.41
2023-01-22T04:22:55.200Z,-1.41
2023-01-22T04:25:56.784Z,-1.40
2023-01-22T04:28:58.377Z,-1.41
2023-01-22T04:31:59.918Z,-1.40
2023-01-22T04:35:01.649Z,-1.42
2023-01-22T04:38:05.091Z,-1.53
2023-01-22T04:41:06.625Z,-1.79
2023-01-22T04:44:08.423Z,-1.97
2023-01-22T04:47:10.021Z,-2.01
2023-01-22T04:50:19.775Z,-2.11
2023-01-22T04:53:21.660Z,-2.16
2023-01-22T04:56:23.265Z,-2.19
2023-01-22T04:59:24.873Z,-2.19
2023-01-22T05:02:26.806Z,-2.12
2023-01-22T05:05:30.236Z,-2.06
2023-01-22T05:08:31.962Z,-1.99
2023-01-22T05:11:33.533Z,-1.95
2023-01-22T05:14:35.207Z,-1.91
2023-01-22T05:17:36.868Z,-1.85
2023-01-22T05:20:38.736Z,-1.82
2023-01-22T05:23:40.280Z,-1.80
2023-01-22T05:26:41.987Z,-1.78
2023-01-22T05:29:43.618Z,-1.77
2023-01-22T05:32:45.111Z,-1.78
2023-01-22T05:35:58.330Z,-1.70
2023-01-22T05:38:59.981Z,-1.61
2023-01-22T05:42:01.668Z,-1.55
2023-01-22T05:45:03.616Z,-1.49
2023-01-22T05:48:05.543Z,-1.44
2023-01-22T05:51:08.149Z,-1.40
2023-01-22T05:54:09.805Z,-1.35
2023-01-22T05:57:11.466Z,-1.32
2023-01-22T06:00:13.760Z,-1.31
2023-01-22T06:03:15.341Z,-1.29
2023-01-22T06:06:16.884Z,-1.30
2023-01-22T06:09:18.556Z,-1.30
2023-01-22T06:12:20.107Z,-1.28
2023-01-22T06:15:21.774Z,-1.28
2023-01-22T06:18:24.378Z,-1.29
2023-01-22T06:21:29.099Z,-1.29
2023-01-22T06:24:30.661Z,-1.29
2023-01-22T06:27:32.277Z,-1.30
2023-01-22T06:30:34.031Z,-1.29
2023-01-22T06:33:36.066Z,-1.28
2023-01-22T06:36:37.838Z,-1.29
2023-01-22T06:39:39.385Z,-1.28
2023-01-22T06:42:41.511Z,-1.28
2023-01-22T06:45:43.132Z,-1.27
2023-01-22T06:48:44.856Z,-1.26
2023-01-22T06:51:46.556Z,-1.26
2023-01-22T06:54:48.095Z,-1.24
2023-01-22T06:57:49.670Z,-1.23
2023-01-22T07:00:51.301Z,-1.22
2023-01-22T07:03:53.171Z,-1.22
2023-01-22T07:06:54.801Z,-1.21
2023-01-22T07:09:56.428Z,-1.19
2023-01-22T07:12:58.416Z,-1.18
2023-01-22T07:16:04.463Z,-1.17
2023-01-22T07:19:06.129Z,-1.16
2023-01-22T07:22:07.737Z,-1.14
2023-01-22T07:25:09.523Z,-1.11
2023-01-22T07:28:13.573Z,-1.07
2023-01-22T07:31:15.231Z,-1.03
2023-01-22T07:34:16.813Z,-1.04
2023-01-22T07:37:18.469Z,-1.04
2023-01-22T07:40:20.673Z,-1.01
2023-01-22T07:43:22.338Z,-0.99
2023-01-22T07:46:24.119Z,-0.96
2023-01-22T07:49:25.679Z,-0.93
2023-01-22T07:52:27.474Z,-0.91
2023-01-22T07:55:29.154Z,-0.87
2023-01-22T07:58:30.793Z,-0.85
2023-01-22T08:01:32.382Z,-0.83
2023-01-22T08:04:33.999Z,-0.79
2023-01-22T08:07:35.671Z,-0.75
2023-01-22T08:10:38.289Z,-0.72
2023-01-22T08:13:40.051Z,-0.68
2023-01-22T08:16:41.711Z,-0.65
2023-01-22T08:19:43.185Z,-0.61
2023-01-22T08:22:44.807Z,-0.58
2023-01-22T08:25:46.651Z,-0.56
2023-01-22T08:28:48.549Z,-0.51
2023-01-22T08:31:50.756Z,-0.50
2023-01-22T08:34:52.521Z,-0.47
2023-01-22T08:37:54.259Z,-0.44
2023-01-22T08:40:55.934Z,-0.41
2023-01-22T08:43:57.677Z,-0.41
2023-01-22T08:46:59.342Z,-0.41
2023-01-22T08:50:01.005Z,-0.40
2023-01-22T08:53:02.694Z,-0.39
2023-01-22T08:56:04.612Z,-0.37
2023-01-22T08:59:06.239Z,-0.37
2023-01-22T09:02:10.840Z,-0.37
2023-01-22T09:05:12.607Z,-0.32
2023-01-22T09:08:14.084Z,-0.25
2023-01-22T09:11:15.971Z,-0.17
2023-01-22T09:14:17.815Z,-0.09
2023-01-22T09:17:19.404Z,-0.04
2023-01-22T09:20:21.275Z,-0.02
2023-01-22T09:23:22.951Z,-0.09
2023-01-22T09:26:24.660Z,-0.03
2023-01-22T09:29:26.279Z,0.07
2023-01-22T09:32:27.991Z,0.08
2023-01-22T09:35:29.593Z,0.07
2023-01-22T09:38:31.636Z,0.14
2023-01-22T09:41:46.729Z,0.18
2023-01-22T09:44:52.096Z,0.15
2023-01-22T09:47:56.476Z,0.09
2023-01-22T09:50:58.041Z,0.09
2023-01-22T09:54:01.342Z,0.13
2023-01-22T09:57:05.273Z,0.24
2023-01-22T10:00:33.814Z,0.31
2023-01-22T10:03:44.384Z,0.40
2023-01-22T10:06:46.441Z,0.45
2023-01-22T10:09:53.748Z,0.53
2023-01-22T10:13:06.650Z,0.58
2023-01-22T10:16:09.953Z,0.61
2023-01-22T10:19:25.143Z,0.59
2023-01-22T10:22:27.110Z,0.54
2023-01-22T10:25:28.959Z,0.57
2023-01-22T10:28:30.845Z,0.65
2023-01-22T10:31:38.299Z,0.66
2023-01-22T10:34:40.207Z,0.71
2023-01-22T10:37:50.736Z,0.80
2023-01-22T10:40:55.345Z,0.79
2023-01-22T10:44:13.367Z,0.75
2023-01-22T10:47:23.294Z,0.63
2023-01-22T10:50:24.919Z,0.65
2023-01-22T10:53:33.618Z,0.62
2023-01-22T10:56:37.203Z,0.49
2023-01-22T10:59:38.845Z,0.44
2023-01-22T11:02:46.698Z,0.42
2023-01-22T11:05:51.994Z,0.42
2023-01-22T11:09:11.368Z,0.42
2023-01-22T11:12:28.714Z,0.40
2023-01-22T11:15:52.201Z,0.32
2023-01-22T11:19:05.290Z,0.16
2023-01-22T11:22:16.970Z,0.25
2023-01-22T11:25:18.781Z,0.38
2023-01-22T11:28:28.355Z,0.47
2023-01-22T11:31:48.829Z,0.59
2023-01-22T11:35:05.828Z,0.72
2023-01-22T11:38:10.480Z,0.80
2023-01-22T11:41:36.018Z,0.80
2023-01-22T11:44:52.750Z,0.72
2023-01-22T11:48:14.510Z,0.67
2023-01-22T11:51:36.797Z,0.63
2023-01-22T11:55:12.863Z,0.53
2023-01-22T11:58:57.332Z,0.49
2023-01-22T12:02:30.322Z,0.54
2023-01-22T12:05:48.259Z,0.66
2023-01-22T12:08:52.966Z,0.76
2023-01-22T12:12:12.011Z,0.86
2023-01-22T12:15:18.048Z,0.83
2023-01-22T12:18:46.823Z,0.76
2023-01-22T12:21:54.516Z,0.70
2023-01-22T12:25:02.897Z,0.78
2023-01-22T12:28:34.554Z,0.89
2023-01-22T12:31:40.509Z,0.92
2023-01-22T12:35:00.626Z,0.93
2023-01-22T12:38:12.616Z,0.93
2023-01-22T12:41:36.415Z,0.92
2023-01-22T12:45:07.207Z,0.89
2023-01-22T12:48:23.053Z,0.72
2023-01-22T12:51:38.273Z,0.43
2023-01-22T12:54:39.987Z,0.11
2023-01-22T12:57:41.831Z,-0.10
2023-01-22T13:00:43.542Z,-0.14
2023-01-22T13:04:00.008Z,-0.14
2023-01-22T13:07:15.820Z,-0.17
2023-01-22T13:10:21.137Z,-0.16
2023-01-22T13:13:33.951Z,-0.14
2023-01-22T13:16:36.798Z,-0.13
2023-01-22T13:19:44.139Z,-0.16
2023-01-22T13:22:45.848Z,-0.24
2023-01-22T13:25:52.173Z,-0.33
2023-01-22T13:29:00.324Z,-0.37
2023-01-22T13:32:19.544Z,-0.28
2023-01-22T13:35:21.379Z,-0.20
2023-01-22T13:38:27.254Z,-0.36
2023-01-22T13:41:37.445Z,-0.52
2023-01-22T13:44:41.805Z,-0.59
2023-01-22T13:47:43.519Z,-0.62
2023-01-22T13:50:51.659Z,-0.52
2023-01-22T13:53:54.931Z,-0.49
2023-01-22T13:56:56.630Z,-0.48
2023-01-22T13:59:59.929Z,-0.51
2023-01-22T14:03:02.136Z,-0.50
2023-01-22T14:06:06.620Z,-0.45
2023-01-22T14:09:08.387Z,-0.36
2023-01-22T14:12:16.004Z,-0.31
2023-01-22T14:15:20.553Z,-0.28
2023-01-22T14:18:22.124Z,-0.17
2023-01-22T14:21:23.684Z,-0.07
2023-01-22T14:24:25.267Z,0.03
2023-01-22T14:27:45.047Z,0.13
2023-01-22T14:30:46.727Z,0.20
2023-01-22T14:33:48.626Z,0.18
2023-01-22T14:36:50.303Z,0.18
2023-01-22T14:39:51.878Z,0.18
2023-01-22T14:42:53.632Z,0.25
2023-01-22T14:45:55.189Z,0.25
2023-01-22T14:48:56.847Z,0.03
2023-01-22T14:51:58.388Z,-0.16
2023-01-22T14:54:59.938Z,-0.31
2023-01-22T14:58:01.681Z,-0.51
2023-01-22T15:01:13.625Z,-0.66
2023-01-22T15:04:15.240Z,-0.73
2023-01-22T15:07:16.862Z,-0.78
2023-01-22T15:10:19.533Z,-0.79
2023-01-22T15:13:21.339Z,-0.79
2023-01-22T15:16:23.025Z,-0.74
2023-01-22T15:19:24.743Z,-0.67
2023-01-22T15:22:26.490Z,-0.60
2023-01-22T15:25:28.160Z,-0.56
2023-01-22T15:28:29.960Z,-0.54
2023-01-22T15:31:32.263Z,-0.56
2023-01-22T15:34:33.963Z,-0.52
2023-01-22T15:37:35.536Z,-0.49
2023-01-22T15:40:37.319Z,-0.74
2023-01-22T15:43:38.808Z,-0.93
2023-01-22T15:46:41.504Z,-0.87
2023-01-22T15:49:43.106Z,-0.78
2023-01-22T15:52:44.771Z,-0.77
2023-01-22T15:55:49.830Z,-0.79
2023-01-22T15:58:52.332Z,-0.78
2023-01-22T16:01:54.090Z,-0.81
2023-01-22T16:04:55.596Z,-0.84
2023-01-22T16:07:57.293Z,-0.80
2023-01-22T16:10:58.871Z,-0.80
2023-01-22T16:14:00.817Z,-0.79
2023-01-22T16:17:02.292Z,-0.77
2023-01-22T16:20:04.294Z,-0.75
2023-01-22T16:23:06.084Z,-0.71
2023-01-22T16:26:08.242Z,-0.69
2023-01-22T16:29:10.258Z,-0.68
2023-01-22T16:32:11.740Z,-0.69
2023-01-22T16:35:13.423Z,-0.73
2023-01-22T16:38:15.121Z,-0.80
2023-01-22T16:41:25.341Z,-0.89
2023-01-22T16:44:27.415Z,-0.88
2023-01-22T16:47:29.059Z,-0.83
2023-01-22T16:50:30.783Z,-0.86
2023-01-22T16:53:32.423Z,-0.83
2023-01-22T16:56:34.703Z,-0.78
2023-01-22T16:59:37.789Z,-0.76
2023-01-22T17:02:39.377Z,-0.75
2023-01-22T17:05:40.954Z,-0.73
2023-01-22T17:08:42.712Z,-0.68
2023-01-22T17:11:45.095Z,-0.71
2023-01-22T17:14:46.658Z,-0.69
2023-01-22T17:17:48.291Z,-0.66
2023-01-22T17:21:01.615Z,-0.65
2023-01-22T17:24:03.994Z,-0.65
2023-01-22T17:27:05.627Z,-0.65
2023-01-22T17:30:08.272Z,-0.63
2023-01-22T17:33:09.982Z,-0.84
2023-01-22T17:36:12.375Z,-0.91
2023-01-22T17:39:15.669Z,-0.91
2023-01-22T17:42:18.174Z,-0.90
2023-01-22T17:45:20.023Z,-0.84
2023-01-22T17:48:21.851Z,-0.81
2023-01-22T17:51:25.711Z,-0.80
2023-01-22T17:54:27.269Z,-0.78
2023-01-22T17:57:28.897Z,-0.77
2023-01-22T18:00:30.571Z,-0.79
2023-01-22T18:03:32.238Z,-0.80
2023-01-22T18:06:34.969Z,-0.80
2023-01-22T18:09:36.674Z,-0.79
2023-01-22T18:12:38.138Z,-0.82
2023-01-22T18:15:45.186Z,-0.75
2023-01-22T18:18:46.960Z,-0.76
2023-01-22T18:21:48.822Z,-0.78
2023-01-22T18:24:50.396Z,-0.76
2023-01-22T18:27:52.053Z,-0.73
2023-01-22T18:30:54.189Z,-0.73
2023-01-22T18:33:57.903Z,-0.71
2023-01-22T18:36:59.530Z,-0.69
2023-01-22T18:40:01.225Z,-0.68
2023-01-22T18:43:02.851Z,-0.67
2023-01-22T18:46:06.649Z,-0.66
2023-01-22T18:49:17.080Z,-0.65
2023-01-22T18:52:19.563Z,-0.69
2023-01-22T18:55:21.874Z,-0.65
2023-01-22T18:58:23.848Z,-0.74
2023-01-22T19:01:31.275Z,-0.79
2023-01-22T19:04:32.967Z,-0.80
2023-01-22T19:07:34.605Z,-0.77
2023-01-22T19:10:36.254Z,-0.77
2023-01-22T19:13:39.045Z,-0.76
2023-01-22T19:16:40.851Z,-0.76
2023-01-22T19:19:42.475Z,-0.74
2023-01-22T19:22:44.069Z,-0.74
2023-01-22T19:25:45.727Z,-0.77
2023-01-22T19:28:47.381Z,-0.79
2023-01-22T19:31:50.317Z,-0.79
2023-01-22T19:34:51.946Z,-0.76
2023-01-22T19:37:53.533Z,-0.79
2023-01-22T19:40:55.126Z,-0.86
2023-01-22T19:43:59.568Z,-0.87
2023-01-22T19:47:01.164Z,-0.90
2023-01-22T19:50:02.840Z,-0.96
2023-01-22T19:53:04.580Z,-0.98
2023-01-22T19:56:18.227Z,-0.98
2023-01-22T19:59:21.521Z,-0.99
2023-01-22T20:02:23.139Z,-1.00
2023-01-22T20:05:24.840Z,-0.97
2023-01-22T20:08:26.621Z,-0.97
2023-01-22T20:11:28.176Z,-0.98
2023-01-22T20:14:32.243Z,-0.96
2023-01-22T20:17:34.622Z,-0.99
2023-01-22T20:20:36.862Z,-1.03
2023-01-22T20:23:38.624Z,-1.04
2023-01-22T20:26:40.262Z,-1.03
2023-01-22T20:29:42.031Z,-1.05
2023-01-22T20:32:43.657Z,-0.96
2023-01-22T20:35:45.312Z,-0.87
2023-01-22T20:38:47.914Z,-1.06
2023-01-22T20:41:49.457Z,-1.34
2023-01-22T20:44:51.619Z,-1.44
2023-01-22T20:47:53.257Z,-1.37
2023-01-22T20:50:55.159Z,-1.21
2023-01-22T20:53:57.206Z,-1.16
2023-01-22T20:56:58.870Z,-1.09
2023-01-22T21:00:00.541Z,-1.07
2023-01-22T21:03:02.139Z,-1.06
2023-01-22T21:06:05.906Z,-0.97
2023-01-22T21:09:09.326Z,-0.86
2023-01-22T21:12:10.897Z,-0.79
2023-01-22T21:15:12.576Z,-0.73
2023-01-22T21:18:14.347Z,-0.68
2023-01-22T21:21:18.648Z,-0.61
2023-01-22T21:24:20.311Z,-0.58
2023-01-22T21:27:21.897Z,-0.56
2023-01-22T21:30:23.581Z,-0.53
2023-01-22T21:33:25.202Z,-0.52
2023-01-22T21:36:26.880Z,-0.52
2023-01-22T21:39:30.009Z,-0.52
2023-01-22T21:42:31.678Z,-0.50
2023-01-22T21:45:33.400Z,-0.50
2023-01-22T21:48:34.978Z,-0.51
2023-01-22T21:51:36.503Z,-0.52
2023-01-22T21:54:40.158Z,-0.55
2023-01-22T21:57:41.789Z,-0.57
2023-01-22T22:00:43.379Z,-0.57
2023-01-22T22:03:45.044Z,-0.55
2023-01-22T22:06:47.300Z,-0.54
2023-01-22T22:09:49.046Z,-0.55
2023-01-22T22:12:50.631Z,-0.54
2023-01-22T22:15:52.345Z,-0.51
2023-01-22T22:18:56.975Z,-0.50
2023-01-22T22:21:58.535Z,-0.53
2023-01-22T22:25:00.047Z,-0.52
2023-01-22T22:28:01.727Z,-0.51
2023-01-22T22:31:09.060Z,-0.49
2023-01-22T22:34:10.746Z,-0.49
2023-01-22T22:37:12.725Z,-0.48
2023-01-22T22:40:14.420Z,-0.52
2023-01-22T22:43:16.219Z,-0.52
2023-01-22T22:46:19.474Z,-0.51
2023-01-22T22:49:21.021Z,-0.51
2023-01-22T22:52:22.787Z,-0.53
2023-01-22T22:55:24.407Z,-0.55
2023-01-22T22:58:26.398Z,-0.57
2023-01-22T23:01:28.311Z,-0.57
2023-01-22T23:04:30.163Z,-0.57
2023-01-22T23:07:31.917Z,-0.59
2023-01-22T23:10:33.648Z,-0.56
2023-01-22T23:13:36.313Z,-0.55
2023-01-22T23:16:42.543Z,-0.55
2023-01-22T23:19:44.262Z,-0.56
2023-01-22T23:22:45.976Z,-0.55
2023-01-22T23:25:47.658Z,-0.55
2023-01-22T23:28:49.903Z,-0.55
2023-01-22T23:31:51.940Z,-0.52
2023-01-22T23:34:53.884Z,-0.50
2023-01-22T23:37:55.401Z,-0.49
2023-01-22T23:41:01.538Z,-0.51
2023-01-22T23:44:04.005Z,-0.55
2023-01-22T23:47:05.699Z,-0.54
2023-01-22T23:50:07.575Z,-0.53
2023-01-22T23:53:09.285Z,-0.55
2023-01-22T23:56:11.622Z,-0.58
2023-01-22T23:59:13.373Z,-0.60
